sensor_id;sensor_type;location;lat;lon;timestamp;P1;durP1;ratioP1;P2;durP2;ratioP2
15183;SDS011;7693;49.266;7.104;2022-12-20T05:57:16;7.67;;;3.00;;
15183;SDS011;7693;49.266;7.104;2022-12-20T05:59:42;3.93;;;2.60;;
15183;SDS011;7693;49.266;7.104;2022-12-20T06:02:07;4.13;;;2.77;;
15183;SDS011;7693;49.266;7.104;2022-12-20T06:04:34;3.27;;;2.67;;
15183;SDS011;7693;49.266;7.104;2022-12-20T06:07:00;9.17;;;3.00;;
15183;SDS011;7693;49.266;7.104;2022-12-20T06:09:26;5.73;;;2.37;;
15183;SDS011;7693;49.266;7.104;2022-12-20T06:11:52;6.03;;;2.37;;
15183;SDS011;7693;49.266;7.104;2022-12-20T06:14:17;15.80;;;2.80;;
15183;SDS011;7693;49.266;7.104;2022-12-20T06:16:43;5.23;;;2.60;;
15183;SDS011;7693;49.266;7.104;2022-12-20T06:19:09;5.00;;;2.60;;
15183;SDS011;7693;49.266;7.104;2022-12-20T06:21:34;9.87;;;2.83;;
15183;SDS011;7693;49.266;7.104;2022-12-20T06:24:00;4.33;;;2.70;;
15183;SDS011;7693;49.266;7.104;2022-12-20T06:26:25;5.93;;;2.80;;
15183;SDS011;7693;49.266;7.104;2022-12-20T06:28:51;2.80;;;2.43;;
15183;SDS011;7693;49.266;7.104;2022-12-20T06:31:18;3.10;;;2.37;;
15183;SDS011;7693;49.266;7.104;2022-12-20T06:33:44;5.80;;;2.73;;
15183;SDS011;7693;49.266;7.104;2022-12-20T06:36:09;5.83;;;2.73;;
15183;SDS011;7693;49.266;7.104;2022-12-20T06:38:35;3.73;;;2.47;;
15183;SDS011;7693;49.266;7.104;2022-12-20T06:41:01;8.97;;;2.90;;
15183;SDS011;7693;49.266;7.104;2022-12-20T06:43:27;4.60;;;2.63;;
15183;SDS011;7693;49.266;7.104;2022-12-20T06:45:52;3.53;;;2.33;;
15183;SDS011;7693;49.266;7.104;2022-12-20T06:48:18;4.23;;;2.33;;
15183;SDS011;7693;49.266;7.104;2022-12-20T06:50:46;4.37;;;3.57;;
15183;SDS011;7693;49.266;7.104;2022-12-20T06:53:15;2.60;;;2.50;;
15183;SDS011;7693;49.266;7.104;2022-12-20T06:55:40;2.53;;;2.33;;
15183;SDS011;7693;49.266;7.104;2022-12-20T06:58:06;3.43;;;2.20;;
15183;SDS011;7693;49.266;7.104;2022-12-20T07:00:32;2.80;;;2.00;;
15183;SDS011;7693;49.266;7.104;2022-12-20T07:02:57;3.90;;;2.27;;
15183;SDS011;7693;49.266;7.104;2022-12-20T07:05:23;2.93;;;2.10;;
15183;SDS011;7693;49.266;7.104;2022-12-20T07:07:48;3.87;;;2.30;;
15183;SDS011;7693;49.266;7.104;2022-12-20T07:10:14;3.60;;;2.33;;
15183;SDS011;7693;49.266;7.104;2022-12-20T07:12:40;2.37;;;2.27;;
15183;SDS011;7693;49.266;7.104;2022-12-20T07:15:06;2.10;;;2.00;;
15183;SDS011;7693;49.266;7.104;2022-12-20T07:17:32;3.13;;;2.07;;
15183;SDS011;7693;49.266;7.104;2022-12-20T07:19:58;2.97;;;2.30;;
15183;SDS011;7693;49.266;7.104;2022-12-20T07:22:23;3.03;;;2.47;;
15183;SDS011;7693;49.266;7.104;2022-12-20T07:24:49;2.33;;;2.10;;
15183;SDS011;7693;49.266;7.104;2022-12-20T07:27:14;6.80;;;2.30;;
15183;SDS011;7693;49.266;7.104;2022-12-20T07:29:40;3.60;;;2.33;;
15183;SDS011;7693;49.266;7.104;2022-12-20T07:32:06;2.33;;;2.13;;
15183;SDS011;7693;49.266;7.104;2022-12-20T07:34:32;4.37;;;2.17;;
15183;SDS011;7693;49.266;7.104;2022-12-20T07:36:58;2.37;;;2.17;;
15183;SDS011;7693;49.266;7.104;2022-12-20T07:39:23;4.67;;;2.07;;
15183;SDS011;7693;49.266;7.104;2022-12-20T07:41:52;4.20;;;2.40;;
15183;SDS011;7693;49.266;7.104;2022-12-20T07:44:19;3.33;;;2.63;;
15183;SDS011;7693;49.266;7.104;2022-12-20T07:46:45;2.13;;;2.03;;
15183;SDS011;7693;49.266;7.104;2022-12-20T07:49:10;2.73;;;2.13;;
15183;SDS011;7693;49.266;7.104;2022-12-20T07:51:40;3.47;;;2.17;;
15183;SDS011;7693;49.266;7.104;2022-12-20T07:54:12;2.63;;;2.20;;
15183;SDS011;7693;49.266;7.104;2022-12-20T07:56:44;2.30;;;2.20;;
15183;SDS011;7693;49.266;7.104;2022-12-20T13:30:45;2.73;;;2.47;;
15183;SDS011;7693;49.266;7.104;2022-12-20T13:35:46;2.50;;;2.40;;
15183;SDS011;7693;49.266;7.104;2022-12-20T13:44:00;2.50;;;2.30;;
15183;SDS011;7693;49.266;7.104;2022-12-20T13:49:26;2.00;;;1.90;;
15183;SDS011;7693;49.266;7.104;2022-12-20T13:54:59;2.50;;;1.83;;
15183;SDS011;7693;49.266;7.104;2022-12-20T13:57:31;3.67;;;2.40;;
15183;SDS011;7693;49.266;7.104;2022-12-20T14:00:21;3.10;;;2.00;;
15183;SDS011;7693;49.266;7.104;2022-12-20T14:02:49;2.20;;;2.10;;
15183;SDS011;7693;49.266;7.104;2022-12-20T14:05:18;2.10;;;2.00;;
15183;SDS011;7693;49.266;7.104;2022-12-20T14:07:50;2.13;;;2.00;;
15183;SDS011;7693;49.266;7.104;2022-12-20T14:10:23;2.50;;;2.30;;
15183;SDS011;7693;49.266;7.104;2022-12-20T14:12:50;2.40;;;2.20;;
15183;SDS011;7693;49.266;7.104;2022-12-20T14:15:24;2.83;;;2.30;;
15183;SDS011;7693;49.266;7.104;2022-12-20T14:18:03;2.07;;;1.97;;
15183;SDS011;7693;49.266;7.104;2022-12-20T14:20:41;4.60;;;2.17;;
15183;SDS011;7693;49.266;7.104;2022-12-20T14:23:09;2.00;;;2.00;;
15183;SDS011;7693;49.266;7.104;2022-12-20T14:28:19;3.37;;;2.20;;
15183;SDS011;7693;49.266;7.104;2022-12-20T14:31:05;3.47;;;2.40;;
15183;SDS011;7693;49.266;7.104;2022-12-20T16:17:46;2.93;;;2.50;;
15183;SDS011;7693;49.266;7.104;2022-12-20T16:20:11;3.17;;;2.53;;
15183;SDS011;7693;49.266;7.104;2022-12-20T16:22:37;4.90;;;3.50;;
15183;SDS011;7693;49.266;7.104;2022-12-20T16:25:02;5.67;;;3.20;;
15183;SDS011;7693;49.266;7.104;2022-12-20T16:27:29;3.27;;;3.07;;
15183;SDS011;7693;49.266;7.104;2022-12-20T16:29:54;3.23;;;3.03;;
15183;SDS011;7693;49.266;7.104;2022-12-20T16:32:20;2.67;;;2.50;;
15183;SDS011;7693;49.266;7.104;2022-12-20T16:34:46;2.90;;;2.43;;
15183;SDS011;7693;49.266;7.104;2022-12-20T16:37:13;3.67;;;2.63;;
15183;SDS011;7693;49.266;7.104;2022-12-20T16:39:39;2.67;;;2.37;;
15183;SDS011;7693;49.266;7.104;2022-12-20T16:42:11;3.23;;;2.90;;
15183;SDS011;7693;49.266;7.104;2022-12-20T16:44:40;2.70;;;2.50;;
15183;SDS011;7693;49.266;7.104;2022-12-20T16:47:08;3.63;;;2.57;;
15183;SDS011;7693;49.266;7.104;2022-12-20T16:49:35;7.57;;;2.83;;
15183;SDS011;7693;49.266;7.104;2022-12-20T16:52:00;3.97;;;2.97;;
15183;SDS011;7693;49.266;7.104;2022-12-20T16:54:28;4.77;;;3.33;;
15183;SDS011;7693;49.266;7.104;2022-12-20T16:56:54;3.40;;;3.10;;
15183;SDS011;7693;49.266;7.104;2022-12-20T16:59:21;4.40;;;2.73;;
15183;SDS011;7693;49.266;7.104;2022-12-20T17:01:53;2.83;;;2.63;;
15183;SDS011;7693;49.266;7.104;2022-12-20T17:04:20;3.87;;;2.80;;
15183;SDS011;7693;49.266;7.104;2022-12-20T17:06:46;4.60;;;2.80;;
15183;SDS011;7693;49.266;7.104;2022-12-20T17:09:12;3.63;;;3.33;;
15183;SDS011;7693;49.266;7.104;2022-12-20T17:11:40;3.27;;;2.87;;
15183;SDS011;7693;49.266;7.104;2022-12-20T19:47:15;9.03;;;7.20;;
15183;SDS011;7693;49.266;7.104;2022-12-20T19:49:40;5.83;;;5.40;;
15183;SDS011;7693;49.266;7.104;2022-12-20T19:52:06;7.33;;;5.37;;
15183;SDS011;7693;49.266;7.104;2022-12-20T19:54:31;5.83;;;5.00;;
15183;SDS011;7693;49.266;7.104;2022-12-20T19:59:32;4.57;;;4.03;;
15183;SDS011;7693;49.266;7.104;2022-12-20T20:01:57;5.07;;;4.40;;
15183;SDS011;7693;49.266;7.104;2022-12-20T20:04:23;8.37;;;4.83;;
15183;SDS011;7693;49.266;7.104;2022-12-20T20:06:49;5.87;;;4.30;;
15183;SDS011;7693;49.266;7.104;2022-12-20T20:09:14;6.50;;;4.17;;
15183;SDS011;7693;49.266;7.104;2022-12-20T20:11:40;6.73;;;4.00;;
15183;SDS011;7693;49.266;7.104;2022-12-20T20:14:05;6.33;;;4.93;;
15183;SDS011;7693;49.266;7.104;2022-12-20T20:16:33;7.03;;;4.53;;
15183;SDS011;7693;49.266;7.104;2022-12-20T20:18:59;4.67;;;4.10;;
15183;SDS011;7693;49.266;7.104;2022-12-20T20:21:25;8.97;;;4.33;;
15183;SDS011;7693;49.266;7.104;2022-12-20T20:23:51;8.73;;;5.10;;
15183;SDS011;7693;49.266;7.104;2022-12-20T20:26:22;6.43;;;4.13;;
15183;SDS011;7693;49.266;7.104;2022-12-20T20:28:50;4.13;;;3.83;;
15183;SDS011;7693;49.266;7.104;2022-12-20T20:31:17;5.17;;;3.97;;
15183;SDS011;7693;49.266;7.104;2022-12-20T20:33:44;4.47;;;4.03;;
15183;SDS011;7693;49.266;7.104;2022-12-20T20:36:14;4.40;;;3.80;;
15183;SDS011;7693;49.266;7.104;2022-12-20T20:38:41;5.43;;;4.90;;
15183;SDS011;7693;49.266;7.104;2022-12-20T20:41:07;5.43;;;4.67;;
15183;SDS011;7693;49.266;7.104;2022-12-20T20:43:33;5.47;;;4.73;;
15183;SDS011;7693;49.266;7.104;2022-12-20T20:46:04;7.23;;;4.70;;
15183;SDS011;7693;49.266;7.104;2022-12-20T20:48:31;4.63;;;4.20;;
15183;SDS011;7693;49.266;7.104;2022-12-20T20:50:57;5.03;;;4.60;;
15183;SDS011;7693;49.266;7.104;2022-12-20T20:53:22;5.10;;;4.60;;
15183;SDS011;7693;49.266;7.104;2022-12-20T20:55:48;7.90;;;4.83;;
15183;SDS011;7693;49.266;7.104;2022-12-20T20:58:14;9.30;;;5.33;;
15183;SDS011;7693;49.266;7.104;2022-12-20T21:00:40;5.40;;;4.90;;
15183;SDS011;7693;49.266;7.104;2022-12-20T21:03:06;4.70;;;4.30;;
15183;SDS011;7693;49.266;7.104;2022-12-20T21:05:32;5.57;;;4.63;;
15183;SDS011;7693;49.266;7.104;2022-12-20T21:07:57;4.87;;;4.47;;
15183;SDS011;7693;49.266;7.104;2022-12-20T21:10:23;6.30;;;4.33;;
15183;SDS011;7693;49.266;7.104;2022-12-20T21:12:49;5.23;;;4.23;;
15183;SDS011;7693;49.266;7.104;2022-12-20T21:15:14;6.07;;;3.90;;
15183;SDS011;7693;49.266;7.104;2022-12-20T21:17:40;4.70;;;4.17;;
15183;SDS011;7693;49.266;7.104;2022-12-20T21:20:06;4.97;;;4.20;;
15183;SDS011;7693;49.266;7.104;2022-12-20T21:22:32;4.20;;;3.90;;
15183;SDS011;7693;49.266;7.104;2022-12-20T21:24:58;4.30;;;3.90;;
15183;SDS011;7693;49.266;7.104;2022-12-20T21:27:24;4.00;;;3.70;;
15183;SDS011;7693;49.266;7.104;2022-12-20T21:29:50;4.10;;;3.80;;
15183;SDS011;7693;49.266;7.104;2022-12-20T21:32:16;7.97;;;4.73;;
15183;SDS011;7693;49.266;7.104;2022-12-20T21:34:41;4.77;;;4.43;;
15183;SDS011;7693;49.266;7.104;2022-12-20T21:37:07;5.80;;;4.27;;
15183;SDS011;7693;49.266;7.104;2022-12-20T21:39:32;4.40;;;4.00;;
15183;SDS011;7693;49.266;7.104;2022-12-20T21:41:58;4.00;;;3.70;;
15183;SDS011;7693;49.266;7.104;2022-12-20T21:44:23;4.73;;;4.10;;
15183;SDS011;7693;49.266;7.104;2022-12-20T21:46:49;4.00;;;3.80;;
15183;SDS011;7693;49.266;7.104;2022-12-20T21:49:15;4.23;;;3.93;;
15183;SDS011;7693;49.266;7.104;2022-12-20T21:51:40;6.00;;;3.60;;
15183;SDS011;7693;49.266;7.104;2022-12-20T21:54:07;4.57;;;4.17;;
15183;SDS011;7693;49.266;7.104;2022-12-20T21:56:33;4.27;;;3.87;;
15183;SDS011;7693;49.266;7.104;2022-12-20T21:58:59;4.70;;;4.30;;
15183;SDS011;7693;49.266;7.104;2022-12-20T22:01:26;5.73;;;4.00;;
15183;SDS011;7693;49.266;7.104;2022-12-20T22:03:53;3.57;;;3.47;;
15183;SDS011;7693;49.266;7.104;2022-12-20T22:06:21;4.23;;;3.83;;
15183;SDS011;7693;49.266;7.104;2022-12-20T22:08:46;4.03;;;3.83;;
15183;SDS011;7693;49.266;7.104;2022-12-20T22:11:13;5.63;;;3.80;;
15183;SDS011;7693;49.266;7.104;2022-12-20T22:13:40;4.77;;;4.27;;
15183;SDS011;7693;49.266;7.104;2022-12-20T22:16:16;4.00;;;3.70;;
15183;SDS011;7693;49.266;7.104;2022-12-20T22:18:46;4.10;;;3.90;;
15183;SDS011;7693;49.266;7.104;2022-12-20T22:21:14;3.90;;;3.70;;
15183;SDS011;7693;49.266;7.104;2022-12-20T22:23:41;6.70;;;4.30;;
15183;SDS011;7693;49.266;7.104;2022-12-20T22:26:08;4.30;;;3.67;;
15183;SDS011;7693;49.266;7.104;2022-12-20T22:28:35;4.00;;;3.80;;
15183;SDS011;7693;49.266;7.104;2022-12-20T22:31:06;4.97;;;4.10;;
15183;SDS011;7693;49.266;7.104;2022-12-20T22:33:32;3.80;;;3.50;;
15183;SDS011;7693;49.266;7.104;2022-12-20T22:35:58;4.13;;;3.73;;
15183;SDS011;7693;49.266;7.104;2022-12-20T22:38:24;3.93;;;3.63;;
15183;SDS011;7693;49.266;7.104;2022-12-20T22:40:50;5.00;;;4.20;;
15183;SDS011;7693;49.266;7.104;2022-12-20T22:43:19;5.73;;;5.30;;
15183;SDS011;7693;49.266;7.104;2022-12-20T22:45:54;4.67;;;4.20;;
15183;SDS011;7693;49.266;7.104;2022-12-20T22:48:23;4.97;;;4.40;;
15183;SDS011;7693;49.266;7.104;2022-12-20T22:50:56;5.10;;;4.30;;
15183;SDS011;7693;49.266;7.104;2022-12-20T22:53:23;4.50;;;4.10;;
15183;SDS011;7693;49.266;7.104;2022-12-20T22:55:52;4.33;;;4.03;;
15183;SDS011;7693;49.266;7.104;2022-12-20T22:58:18;4.47;;;4.00;;
15183;SDS011;7693;49.266;7.104;2022-12-20T23:00:44;4.47;;;4.07;;
15183;SDS011;7693;49.266;7.104;2022-12-20T23:03:10;6.60;;;5.43;;
